Slupsk, Poland

6:41 AM CEST on August 30, 2015 (GMT +0200)
Podole Wielkie | | Change Station
CLOSE
Current Station
Personal Weather Station
Location: Podole Wielkie, POMORSKIE
Elevation: 226 ft
Nearby Weather Stations

Elev 226 ft 54.58 °N, 17.50 °E | Updated 9 minutes ago

Clear
Clear
51.1 °F
Feels Like 51.1 °F
N
1.0
Wind Variable Wind from ESE
Gusts 4.0 mph

Today
High -- | Low -- °F
--% Chance of Precip.
Yesterday
High -- | Low -- °F
Precip. -- in
5:54 AM 7:49 PM
Full, 100% visible
Pressure 30.21 in
Visibility -9999.0 miles
Clouds
Dew Point 50 °F
Humidity 94%
Rainfall 0.00 in
Snow Depth Not available.
UV Not available.
Pollen Not available.
Air Quality Not available.
Flu Activity Not available.
METAR EPGD 300430Z VRB01KT CAVOK 11/10 Q1023
Pressure 30.21 in
Visibility -9999.0 miles
Clouds
Dew Point 50 °F
Humidity 94%
Rainfall 0.00 in
Snow Depth Not available.
UV Not available.
Pollen Not available.
Air Quality Not available.
Flu Activity Not available.
METAR EPGD 300430Z VRB01KT CAVOK 11/10 Q1023

10-Day Weather Forecast

×

Almanac

Astronomy

Aug. 30, 2015 Rise Set
Actual Time
Civil Twilight
Nautical Twilight
Astronomical Twilight
Moon
Length of Visible Light
Length of Day
Tomorrow will be .
, % of the Moon is Illuminated

Today's Extremes

Country Highs Country Lows

Community

WunderPhotos

Upload Photos

1,850,887 photos uploaded!

WunderBlogs® & News

Nearby

Air Quality

  Air Quality AQ Index Pollutant
Not available.

Snow Depth

Station Depth Elevation

Earthquake Activity

City Distance Mag. Time & Date
Minimum magnitude displayed is 2.5.

Coastal Water Temperatures

Place Temperature

Stations

Nearby Weather Stations

Station Location Temp. Windchill Dew Point Humidity Wind Precip. Elev Updated Type